Terminal Aerodrome Forecast
Issued by NWS Pittsburgh, PA

Home | Current Version | Previous Version | Text Only | Print | Product List | Glossary On
Versions: 1 2 3 4 5 6 7 8 9 10 11 12 13 14 15 16 17 18 19 20 21 22 23 24 25 26 27
334
FTUS41 KPBZ 280522
TAFPIT
TAF
KPIT 280522Z 2806/2912 25003KT P6SM FEW010 BKN040
     FM280900 24003KT P6SM OVC015
     FM281600 07003KT P6SM VCSH OVC020
     FM282100 02015KT 5SM SHRA OVC030
     FM290300 04009KT 3SM SHRA BR OVC015
     FM290500 04009KT 3SM SHRA BR BKN008=

USA.gov is the U.S. government's official web portal to all federal, state and local government web resources and services.